Terminal Aerodrome Forecast
Issued by NWS

Home | Current Version | Previous Version | Text Only | Print | Product List | Glossary On
Versions: 1 2 3 4 5 6 7 8 9 10 11 12 13 14 15 16 17 18 19 20 21 22 23 24 25
000
FTUS43 KLSX 010500
TAFUIN
TAF
KUIN 010536Z 0106/0206 13005KT 2SM -SN BR OVC025
      TEMPO 0106/0110 3/4SM -SN BR OVC010
     FM011000 VRB04KT 4SM -SN BR OVC008
     FM011400 VRB04KT 6SM -SN OVC010
     FM011800 30007KT P6SM OVC010
     FM020000 30007KT P6SM SCT020 BKN120=

USA.gov is the U.S. government's official web portal to all federal, state and local government web resources and services.